GAO786 TAPA-KMIA
Flight info
| Callsign | GAO786 |
|---|---|
| Flight time | N/A |
| Altitude | 34000 |
| Route | GABAR Y280 ACONY Y308 MADIZ VIICE2 |
| Aircraft | B738/M-SDE2E3FGHIRWXY/LB1 |
Departure
| Time | 2026-05-06 13:04 |
|---|---|
| Airport | V. C. Bird International Airport (TAPA) |
Arrival
| Time | N/A |
|---|---|
| Airport | Miami International Airport (KMIA) |
| Time | Latitude | Longitude | Altitude | Speed | Heading |
|---|---|---|---|---|---|
| 2026-05-06 12:26 | 17.14099 | -61.79035 | 62 ft | 0 kts | 330° |
| 2026-05-06 12:52 | 17.14090 | -61.79030 | 62 ft | 4 kts | 328° |
| 2026-05-06 12:52 | 17.14068 | -61.79014 | 53 ft | 4 kts | 319° |
| 2026-05-06 12:52 | 17.14049 | -61.78993 | 54 ft | 4 kts | 300° |
| 2026-05-06 12:53 | 17.14043 | -61.78970 | 55 ft | 4 kts | 246° |
| 2026-05-06 12:53 | 17.14044 | -61.78966 | 63 ft | 1 kts | 239° |
| 2026-05-06 12:56 | 17.14034 | -61.78983 | 57 ft | 5 kts | 238° |
| 2026-05-06 12:56 | 17.14016 | -61.79014 | 61 ft | 5 kts | 238° |
| 2026-05-06 12:56 | 17.14003 | -61.79035 | 58 ft | 5 kts | 237° |
| 2026-05-06 12:57 | 17.13971 | -61.79086 | 59 ft | 9 kts | 237° |
| 2026-05-06 12:57 | 17.13936 | -61.79113 | 60 ft | 10 kts | 197° |
| 2026-05-06 12:57 | 17.13866 | -61.79123 | 64 ft | 0 kts | 150° |
| 2026-05-06 12:59 | 17.13865 | -61.79122 | 64 ft | 2 kts | 150° |
| 2026-05-06 12:59 | 17.13842 | -61.79108 | 58 ft | 7 kts | 149° |
| 2026-05-06 12:59 | 17.13797 | -61.79080 | 66 ft | 8 kts | 149° |
| 2026-05-06 12:59 | 17.13779 | -61.79083 | 66 ft | 2 kts | 225° |
| 2026-05-06 13:00 | 17.13749 | -61.79133 | 67 ft | 14 kts | 238° |
| 2026-05-06 13:00 | 17.13679 | -61.79250 | 67 ft | 21 kts | 238° |
| 2026-05-06 13:00 | 17.13603 | -61.79379 | 63 ft | 21 kts | 238° |
| 2026-05-06 13:00 | 17.13529 | -61.79504 | 66 ft | 20 kts | 238° |
| 2026-05-06 13:01 | 17.13460 | -61.79627 | 66 ft | 19 kts | 238° |
| 2026-05-06 13:01 | 17.13391 | -61.79745 | 61 ft | 19 kts | 238° |
| 2026-05-06 13:01 | 17.13323 | -61.79859 | 61 ft | 18 kts | 238° |
| 2026-05-06 13:01 | 17.13256 | -61.79971 | 58 ft | 18 kts | 239° |
| 2026-05-06 13:02 | 17.13194 | -61.80080 | 58 ft | 17 kts | 239° |
| 2026-05-06 13:02 | 17.13138 | -61.80127 | 63 ft | 10 kts | 202° |
| 2026-05-06 13:02 | 17.13110 | -61.80181 | 64 ft | 4 kts | 283° |
| 2026-05-06 13:02 | 17.13132 | -61.80181 | 58 ft | 4 kts | 43° |
| 2026-05-06 13:03 | 17.13149 | -61.80157 | 64 ft | 6 kts | 57° |
| 2026-05-06 13:03 | 17.13292 | -61.79912 | 59 ft | 75 kts | 58° |
| 2026-05-06 13:03 | 17.13670 | -61.79272 | 67 ft | 133 kts | 58° |
| 2026-05-06 13:03 | 17.14225 | -61.78344 | 359 ft | 153 kts | 62° |
| 2026-05-06 13:04 | 17.14824 | -61.77462 | 1135 ft | 152 kts | 48° |
| 2026-05-06 13:04 | 17.15875 | -61.77008 | 1565 ft | 177 kts | 2° |
| 2026-05-06 13:04 | 17.17104 | -61.77431 | 1929 ft | 205 kts | 323° |
| 2026-05-06 13:04 | 17.17883 | -61.78743 | 2154 ft | 227 kts | 283° |
| 2026-05-06 13:05 | 17.18162 | -61.80442 | 2346 ft | 248 kts | 278° |
| 2026-05-06 13:05 | 17.18411 | -61.82314 | 2521 ft | 270 kts | 277° |
| 2026-05-06 13:05 | 17.18669 | -61.84286 | 2943 ft | 283 kts | 278° |
| 2026-05-06 13:05 | 17.18941 | -61.86326 | 3768 ft | 281 kts | 278° |
| 2026-05-06 13:06 | 17.19219 | -61.88358 | 4555 ft | 282 kts | 278° |
| 2026-05-06 13:06 | 17.19506 | -61.90409 | 5248 ft | 285 kts | 277° |
| 2026-05-06 13:06 | 17.19795 | -61.92439 | 5961 ft | 287 kts | 278° |
| 2026-05-06 13:06 | 17.20097 | -61.94546 | 6682 ft | 292 kts | 278° |
| 2026-05-06 13:07 | 17.20403 | -61.96666 | 7377 ft | 293 kts | 278° |
| 2026-05-06 13:07 | 17.20705 | -61.98746 | 8110 ft | 296 kts | 278° |
| 2026-05-06 13:07 | 17.21021 | -62.00911 | 8854 ft | 298 kts | 278° |
| 2026-05-06 13:07 | 17.21330 | -62.03032 | 9749 ft | 296 kts | 278° |
| 2026-05-06 13:08 | 17.21645 | -62.05188 | 10417 ft | 303 kts | 278° |
| 2026-05-06 13:08 | 17.21975 | -62.07451 | 10655 ft | 325 kts | 278° |
| 2026-05-06 13:08 | 17.22329 | -62.09869 | 10808 ft | 347 kts | 278° |
| 2026-05-06 13:08 | 17.22704 | -62.12442 | 11017 ft | 365 kts | 278° |
| 2026-05-06 13:09 | 17.23089 | -62.15070 | 11394 ft | 375 kts | 279° |
| 2026-05-06 13:09 | 17.23497 | -62.17822 | 11659 ft | 388 kts | 279° |